Time;durP1;ratioP1;P1;durP2;ratioP2;P2;SDS_P1;SDS_P2;PMS_P1;PMS_P2;Temp;Humidity;BMP_temperature;BMP_pressure;BME280_temperature;BME280_humidity;BME280_pressure;Samples;Min_cycle;Max_cycle;Signal;HPM_P1;HPM_P2
2022/05/17 00:00:57;;;;;;;0.80;0.80;;;15.40;99.90;;;;;;4988784;28;20093;-69
2022/05/17 00:03:22;;;;;;;2.33;1.70;;;15.30;99.90;;;;;;4976100;28;20055;-71
2022/05/17 00:05:48;;;;;;;0.63;0.63;;;15.30;99.90;;;;;;4976304;28;20051;-70
2022/05/17 00:08:15;;;;;;;0.52;0.52;;;15.30;99.90;;;;;;4995391;28;20048;-69
2022/05/17 00:10:42;;;;;;;0.30;0.30;;;15.20;99.90;;;;;;4978710;28;20042;-70
2022/05/17 00:13:07;;;;;;;0.30;0.30;;;15.20;99.90;;;;;;4995458;28;20046;-71
2022/05/17 00:15:35;;;;;;;0.50;0.50;;;15.20;99.90;;;;;;4995326;28;20112;-70
2022/05/17 00:18:03;;;;;;;4.60;0.77;;;15.20;99.90;;;;;;4995116;28;20054;-70
2022/05/17 00:20:29;;;;;;;0.50;0.50;;;15.20;99.90;;;;;;4995835;28;20509;-70
2022/05/17 00:22:54;;;;;;;0.38;0.38;;;15.10;99.90;;;;;;4995704;28;20077;-71
2022/05/17 00:25:23;;;;;;;0.43;0.43;;;15.10;99.90;;;;;;4995330;28;20477;-71
2022/05/17 00:27:48;;;;;;;0.65;0.60;;;15.10;99.90;;;;;;4945405;28;20133;-71
2022/05/17 00:30:14;;;;;;;0.57;0.57;;;15.00;99.90;;;;;;4995423;28;20134;-69
2022/05/17 00:32:40;;;;;;;2.00;0.90;;;15.00;99.90;;;;;;4983070;28;20065;-69
2022/05/17 00:35:08;;;;;;;4.38;1.63;;;15.00;99.90;;;;;;4994957;28;20431;-70
2022/05/17 00:37:34;;;;;;;0.40;0.40;;;15.00;99.90;;;;;;4995328;28;20068;-69
2022/05/17 00:40:00;;;;;;;0.75;0.75;;;15.00;99.90;;;;;;4978195;28;20113;-71
2022/05/17 00:42:26;;;;;;;0.45;0.40;;;15.00;99.90;;;;;;4995344;28;20467;-70
2022/05/17 00:44:51;;;;;;;1.40;1.30;;;15.00;99.90;;;;;;4995337;28;20478;-71
2022/05/17 00:47:27;;;;;;;0.60;0.60;;;15.00;99.90;;;;;;4994706;28;20065;-71
2022/05/17 00:49:59;;;;;;;4.47;0.73;;;14.90;99.90;;;;;;4995127;28;20050;-71
2022/05/17 00:52:35;;;;;;;0.57;0.57;;;14.90;99.90;;;;;;4995174;28;20050;-71
2022/05/17 00:55:07;;;;;;;2.90;1.92;;;14.90;99.90;;;;;;4995222;28;20097;-70
2022/05/17 00:58:02;;;;;;;0.60;0.60;;;14.90;99.90;;;;;;4995058;28;20061;-70
2022/05/17 01:00:36;;;;;;;0.90;0.88;;;14.80;99.90;;;;;;4995315;28;20370;-69
2022/05/17 01:03:05;;;;;;;0.50;0.50;;;14.80;99.90;;;;;;4977478;28;20122;-70
2022/05/17 01:05:39;;;;;;;1.08;1.00;;;14.80;99.90;;;;;;4993236;28;20054;-71
2022/05/17 01:08:07;;;;;;;0.95;0.95;;;14.80;99.90;;;;;;4994938;28;20340;-70
2022/05/17 01:10:33;;;;;;;0.43;0.43;;;14.70;99.90;;;;;;4982268;28;20050;-70
2022/05/17 01:15:44;;;;;;;0.88;0.85;;;14.70;99.90;;;;;;4998614;28;20058;-71
2022/05/17 01:18:10;;;;;;;0.30;0.30;;;14.70;99.90;;;;;;4997916;28;20474;-71
2022/05/17 01:20:36;;;;;;;0.65;0.65;;;14.60;99.90;;;;;;4979129;28;20479;-70
2022/05/17 01:23:02;;;;;;;0.50;0.50;;;14.60;99.90;;;;;;4998314;28;20474;-69
2022/05/17 01:25:28;;;;;;;0.43;0.43;;;14.60;99.90;;;;;;4998388;28;20046;-71
2022/05/17 01:28:07;;;;;;;0.40;0.40;;;14.60;99.90;;;;;;4995345;28;20104;-71
2022/05/17 01:30:33;;;;;;;0.40;0.40;;;14.50;99.90;;;;;;4998663;28;20042;-71
2022/05/17 01:32:59;;;;;;;0.55;0.55;;;14.50;99.90;;;;;;4998000;28;20057;-70
2022/05/17 01:35:24;;;;;;;3.80;0.85;;;14.50;99.90;;;;;;4998226;28;20047;-70
2022/05/17 01:37:54;;;;;;;0.40;0.40;;;14.40;99.90;;;;;;4998605;28;20067;-71
2022/05/17 01:40:20;;;;;;;0.60;0.60;;;14.40;99.90;;;;;;4981428;28;20358;-69
2022/05/17 01:42:45;;;;;;;0.32;0.32;;;14.40;99.90;;;;;;4964170;28;20055;-71
2022/05/17 01:45:11;;;;;;;2.13;1.95;;;14.40;99.90;;;;;;4998029;28;20085;-71
2022/05/17 01:47:37;;;;;;;0.43;0.43;;;14.30;99.90;;;;;;4981071;28;20129;-71
2022/05/17 01:50:04;;;;;;;0.40;0.40;;;14.30;99.90;;;;;;4992312;28;20077;-71
2022/05/17 01:52:30;;;;;;;0.50;0.50;;;14.30;99.90;;;;;;4996695;28;20050;-71
2022/05/17 01:54:55;;;;;;;0.40;0.40;;;14.30;99.90;;;;;;4997799;28;20129;-71
2022/05/17 01:57:21;;;;;;;0.40;0.40;;;14.30;99.90;;;;;;4998031;28;20502;-70
2022/05/17 01:59:46;;;;;;;0.40;0.40;;;14.20;99.90;;;;;;4998102;28;20043;-70
2022/05/17 02:02:12;;;;;;;1.02;1.00;;;14.20;99.90;;;;;;4997632;28;20046;-70
2022/05/17 02:04:37;;;;;;;0.30;0.30;;;14.20;99.90;;;;;;4997458;28;20062;-70
2022/05/17 02:07:03;;;;;;;0.82;0.82;;;14.20;99.90;;;;;;4989422;28;20117;-71
2022/05/17 02:09:29;;;;;;;0.43;0.43;;;14.20;99.90;;;;;;4961570;28;20406;-70
2022/05/17 02:11:54;;;;;;;0.30;0.30;;;14.10;99.90;;;;;;4997532;28;20039;-70
2022/05/17 02:14:20;;;;;;;0.75;0.65;;;14.10;99.90;;;;;;4997750;28;20046;-70
2022/05/17 02:16:46;;;;;;;0.50;0.50;;;14.10;99.90;;;;;;4980713;28;20366;-69
2022/05/17 02:19:12;;;;;;;0.50;0.50;;;14.00;99.90;;;;;;4996630;28;20105;-71
2022/05/17 02:21:39;;;;;;;1.65;0.70;;;13.90;99.90;;;;;;4964020;28;20543;-69
2022/05/17 02:24:04;;;;;;;0.30;0.30;;;13.90;99.90;;;;;;4997315;28;20379;-70
2022/05/17 02:26:30;;;;;;;0.82;0.82;;;13.90;99.90;;;;;;4997319;28;20053;-71
2022/05/17 02:28:56;;;;;;;0.40;0.40;;;13.90;99.90;;;;;;4997237;28;20046;-71
2022/05/17 02:31:22;;;;;;;0.30;0.30;;;13.90;99.90;;;;;;4997454;28;20348;-70
2022/05/17 02:33:47;;;;;;;0.82;0.82;;;13.80;99.90;;;;;;4997523;28;20120;-70
2022/05/17 02:36:13;;;;;;;0.73;0.73;;;13.80;99.90;;;;;;4997451;28;20113;-70
2022/05/17 02:38:40;;;;;;;0.50;0.50;;;13.70;99.90;;;;;;4997183;28;20042;-71
2022/05/17 02:41:06;;;;;;;0.40;0.40;;;13.70;99.90;;;;;;4980118;28;20053;-69
2022/05/17 02:43:31;;;;;;;5.72;1.02;;;13.70;99.90;;;;;;4996980;28;20339;-70
2022/05/17 02:45:57;;;;;;;0.40;0.40;;;13.60;99.90;;;;;;4979616;28;20072;-71
2022/05/17 02:48:22;;;;;;;0.50;0.50;;;13.60;99.90;;;;;;4987570;28;20047;-70
2022/05/17 02:50:48;;;;;;;0.35;0.35;;;13.60;99.90;;;;;;4977349;28;20046;-70
2022/05/17 02:53:13;;;;;;;0.63;0.63;;;13.60;99.90;;;;;;4960615;28;20058;-70
2022/05/17 02:55:39;;;;;;;0.35;0.35;;;13.60;99.90;;;;;;4977546;28;20078;-69
2022/05/17 02:58:05;;;;;;;0.65;0.65;;;13.50;99.90;;;;;;4991158;28;20054;-71
2022/05/17 03:00:32;;;;;;;0.52;0.52;;;13.50;99.90;;;;;;4996676;28;20053;-70
2022/05/17 03:02:57;;;;;;;0.30;0.30;;;13.50;99.90;;;;;;4988280;28;20055;-69
2022/05/17 03:05:24;;;;;;;0.73;0.73;;;13.50;99.90;;;;;;4960549;28;20077;-71
2022/05/17 03:07:49;;;;;;;1.20;1.15;;;13.50;99.90;;;;;;4977299;28;20148;-69
2022/05/17 03:10:15;;;;;;;0.40;0.40;;;13.50;99.90;;;;;;4996770;28;20086;-70
2022/05/17 03:12:41;;;;;;;0.47;0.47;;;13.50;99.90;;;;;;4996391;28;20081;-69
2022/05/17 03:15:09;;;;;;;1.75;0.70;;;13.50;99.90;;;;;;4996463;28;20042;-69
2022/05/17 03:17:34;;;;;;;0.98;0.50;;;13.50;99.90;;;;;;4994969;28;20066;-71
2022/05/17 03:20:00;;;;;;;0.63;0.63;;;13.50;99.90;;;;;;4995778;28;20386;-71
2022/05/17 03:22:25;;;;;;;0.40;0.40;;;13.50;99.90;;;;;;4978860;28;20050;-70
2022/05/17 03:24:51;;;;;;;0.55;0.55;;;13.50;99.90;;;;;;4995880;28;20105;-70
2022/05/17 03:27:19;;;;;;;1.85;0.50;;;13.50;99.90;;;;;;4996399;28;20054;-69
2022/05/17 03:29:44;;;;;;;0.40;0.40;;;13.50;99.90;;;;;;4996137;28;20455;-70
2022/05/17 03:32:11;;;;;;;0.45;0.45;;;13.40;99.90;;;;;;4994860;28;20101;-71
2022/05/17 03:34:37;;;;;;;2.28;0.52;;;13.40;99.90;;;;;;4995510;28;20126;-71
2022/05/17 03:37:02;;;;;;;0.60;0.60;;;13.40;99.90;;;;;;4995928;28;20451;-71
2022/05/17 03:39:28;;;;;;;0.40;0.40;;;13.40;99.90;;;;;;4993122;28;20108;-71
2022/05/17 03:41:54;;;;;;;0.60;0.60;;;13.30;99.90;;;;;;4979103;28;20054;-71
2022/05/17 03:44:20;;;;;;;1.13;0.85;;;13.30;99.90;;;;;;4978682;28;20137;-70
2022/05/17 03:46:45;;;;;;;0.60;0.60;;;13.30;99.90;;;;;;4978527;28;20061;-70
2022/05/17 03:49:11;;;;;;;0.55;0.55;;;13.30;99.90;;;;;;4959390;28;20051;-70
2022/05/17 03:51:36;;;;;;;0.60;0.60;;;13.30;99.90;;;;;;4976266;28;20050;-69
2022/05/17 03:54:02;;;;;;;0.73;0.73;;;13.30;99.90;;;;;;4976348;28;20042;-71
2022/05/17 03:56:28;;;;;;;0.30;0.30;;;13.30;99.90;;;;;;4976662;28;20065;-70
2022/05/17 03:58:53;;;;;;;0.50;0.50;;;13.30;99.90;;;;;;4977880;28;20435;-69
2022/05/17 04:01:19;;;;;;;1.10;0.73;;;13.30;99.90;;;;;;4976702;28;20043;-70
2022/05/17 04:03:44;;;;;;;0.80;0.63;;;13.20;99.90;;;;;;4976241;28;20046;-69
2022/05/17 04:06:10;;;;;;;0.43;0.43;;;13.20;99.90;;;;;;4977760;28;20038;-71
2022/05/17 04:08:36;;;;;;;1.05;0.35;;;13.30;99.90;;;;;;4986539;28;20375;-69
2022/05/17 04:11:06;;;;;;;0.43;0.43;;;13.30;99.90;;;;;;4975984;28;20404;-71
2022/05/17 04:13:32;;;;;;;0.93;0.93;;;13.30;99.90;;;;;;4991162;28;20061;-71
2022/05/17 04:15:59;;;;;;;0.82;0.60;;;13.40;99.90;;;;;;4995428;28;20058;-71
2022/05/17 04:18:25;;;;;;;0.50;0.50;;;13.40;99.90;;;;;;4995406;28;20363;-70
2022/05/17 04:20:56;;;;;;;1.20;1.10;;;13.50;99.90;;;;;;4995053;28;20530;-70
2022/05/17 04:23:21;;;;;;;0.40;0.40;;;13.60;99.90;;;;;;4995521;28;20339;-71
2022/05/17 04:25:47;;;;;;;0.75;0.75;;;13.60;99.90;;;;;;4962399;28;20055;-71
2022/05/17 04:28:13;;;;;;;0.43;0.43;;;13.70;99.90;;;;;;4975896;28;20062;-70
2022/05/17 04:30:38;;;;;;;0.80;0.80;;;13.90;99.90;;;;;;4942955;28;20077;-70
2022/05/17 04:33:05;;;;;;;0.30;0.30;;;13.90;99.90;;;;;;4975637;28;20379;-70
2022/05/17 04:35:31;;;;;;;0.60;0.60;;;14.10;99.90;;;;;;4976147;28;20054;-72
2022/05/17 04:37:56;;;;;;;0.88;0.85;;;14.20;99.90;;;;;;4975712;28;20051;-71
2022/05/17 04:40:22;;;;;;;0.77;0.40;;;14.40;99.90;;;;;;4964586;28;20042;-71
2022/05/17 04:42:48;;;;;;;0.40;0.40;;;14.50;99.90;;;;;;4979018;28;20058;-70
2022/05/17 04:45:15;;;;;;;0.30;0.30;;;14.70;99.90;;;;;;4999035;28;20038;-70
2022/05/17 04:47:42;;;;;;;0.50;0.50;;;14.80;99.90;;;;;;4999440;28;20043;-71
2022/05/17 04:50:10;;;;;;;1.95;0.77;;;15.00;99.90;;;;;;4998814;28;20057;-70
2022/05/17 04:52:35;;;;;;;0.82;0.73;;;15.20;99.90;;;;;;4981720;28;20054;-71
2022/05/17 04:55:01;;;;;;;0.57;0.57;;;15.40;99.90;;;;;;4996591;28;20113;-69
2022/05/17 04:57:26;;;;;;;0.60;0.60;;;15.50;99.90;;;;;;4979357;28;20486;-72
2022/05/17 04:59:52;;;;;;;0.98;0.98;;;15.70;99.90;;;;;;4979434;28;20058;-71
2022/05/17 05:02:17;;;;;;;0.30;0.30;;;15.80;99.90;;;;;;4979558;28;20043;-70
2022/05/17 05:04:43;;;;;;;1.20;0.60;;;16.00;99.90;;;;;;4979267;28;20054;-71
2022/05/17 05:07:08;;;;;;;0.60;0.60;;;16.20;99.90;;;;;;4979368;28;20519;-70
2022/05/17 05:09:34;;;;;;;3.60;1.83;;;16.30;99.90;;;;;;4979295;28;20178;-70
2022/05/17 05:12:00;;;;;;;0.85;0.75;;;16.40;99.90;;;;;;4990456;28;20121;-71
2022/05/17 05:14:26;;;;;;;1.60;1.50;;;16.60;99.90;;;;;;4991529;28;20478;-71
2022/05/17 05:16:52;;;;;;;0.32;0.32;;;16.60;99.90;;;;;;4979235;28;20050;-71
2022/05/17 05:19:18;;;;;;;1.90;0.82;;;16.70;99.90;;;;;;4978815;28;20073;-71
2022/05/17 05:21:44;;;;;;;0.30;0.30;;;16.80;99.90;;;;;;4978998;28;20447;-71
2022/05/17 05:24:11;;;;;;;0.73;0.73;;;16.90;99.90;;;;;;4978798;28;20053;-71
2022/05/17 05:26:38;;;;;;;0.60;0.60;;;17.10;99.90;;;;;;4980411;28;20360;-72
2022/05/17 05:29:03;;;;;;;0.73;0.50;;;17.50;99.90;;;;;;4989539;28;20435;-72
2022/05/17 05:31:29;;;;;;;0.63;0.55;;;17.90;99.90;;;;;;4994459;28;20054;-72
2022/05/17 05:33:55;;;;;;;1.58;0.93;;;18.40;99.90;;;;;;4997892;28;20486;-74
2022/05/17 05:36:21;;;;;;;0.30;0.30;;;18.80;99.90;;;;;;4998006;28;20109;-72
2022/05/17 05:38:46;;;;;;;0.43;0.43;;;19.00;99.90;;;;;;4994173;28;20121;-71
2022/05/17 05:41:13;;;;;;;4.60;1.20;;;19.30;99.90;;;;;;4980592;28;20050;-73
2022/05/17 05:43:39;;;;;;;0.50;0.50;;;19.50;99.90;;;;;;4980106;28;20061;-72
2022/05/17 05:46:05;;;;;;;0.60;0.60;;;19.80;99.90;;;;;;4996916;28;20046;-70
2022/05/17 05:48:31;;;;;;;1.15;1.05;;;20.50;99.90;;;;;;4974285;28;20082;-71
2022/05/17 05:50:56;;;;;;;0.95;0.60;;;21.00;99.90;;;;;;4984803;28;20070;-71
2022/05/17 05:53:22;;;;;;;0.63;0.50;;;21.70;99.90;;;;;;4997034;28;20046;-70
2022/05/17 05:56:01;;;;;;;0.57;0.47;;;22.50;99.90;;;;;;4969951;28;20403;-69
2022/05/17 05:58:28;;;;;;;0.70;0.70;;;23.20;99.90;;;;;;4979849;28;20097;-71
2022/05/17 06:00:53;;;;;;;0.50;0.40;;;23.90;99.90;;;;;;4996815;28;20046;-70
2022/05/17 06:03:19;;;;;;;0.60;0.40;;;24.30;99.90;;;;;;4997162;28;20061;-71
2022/05/17 06:05:44;;;;;;;13.93;1.25;;;25.00;99.90;;;;;;4980216;28;20061;-69
2022/05/17 06:08:17;;;;;;;0.75;0.65;;;25.50;99.90;;;;;;4996746;28;20493;-72
2022/05/17 06:10:43;;;;;;;2.00;0.63;;;25.70;99.90;;;;;;4995663;28;20061;-71
2022/05/17 06:13:10;;;;;;;0.60;0.60;;;25.70;99.90;;;;;;4996063;28;20046;-70
2022/05/17 06:15:37;;;;;;;0.60;0.47;;;25.40;99.90;;;;;;4993244;28;20423;-71
2022/05/17 06:18:04;;;;;;;2.72;0.43;;;25.40;99.90;;;;;;4997199;28;20058;-71
2022/05/17 06:20:30;;;;;;;0.35;0.35;;;25.80;99.90;;;;;;4997565;28;20359;-72
2022/05/17 06:22:55;;;;;;;1.67;0.75;;;26.00;99.30;;;;;;5007678;28;20108;-71
2022/05/17 06:25:21;;;;;;;0.43;0.30;;;26.30;99.80;;;;;;4996817;28;20046;-72
2022/05/17 06:27:47;;;;;;;18.52;1.55;;;26.80;98.00;;;;;;4993921;28;20086;-70
2022/05/17 06:30:13;;;;;;;6.95;0.95;;;27.00;95.50;;;;;;4996478;28;20472;-73
2022/05/17 06:32:40;;;;;;;3.78;0.93;;;27.00;96.90;;;;;;4992750;28;20061;-72
2022/05/17 06:35:06;;;;;;;0.30;0.30;;;27.10;94.60;;;;;;4994233;28;20473;-72
2022/05/17 06:37:32;;;;;;;0.52;0.38;;;27.10;95.20;;;;;;4995722;28;20046;-71
2022/05/17 06:39:57;;;;;;;0.20;0.20;;;27.20;95.10;;;;;;4981578;28;20610;-73
2022/05/17 06:42:23;;;;;;;0.63;0.63;;;27.20;94.40;;;;;;4989237;28;20408;-73
2022/05/17 06:44:49;;;;;;;0.63;0.60;;;27.20;95.10;;;;;;4972470;28;20085;-71
2022/05/17 06:47:14;;;;;;;2.45;0.65;;;27.40;94.80;;;;;;4987937;28;20081;-70
2022/05/17 06:49:40;;;;;;;0.15;0.15;;;27.20;93.90;;;;;;4958736;28;20427;-72
2022/05/17 06:52:08;;;;;;;0.10;0.10;;;26.50;93.20;;;;;;4989024;28;20093;-73
2022/05/17 06:54:35;;;;;;;0.90;0.57;;;26.30;95.80;;;;;;4996137;28;20050;-72
2022/05/17 06:57:06;;;;;;;1.05;0.95;;;26.60;95.70;;;;;;4996268;28;20046;-72
2022/05/17 06:59:33;;;;;;;0.52;0.43;;;26.80;94.90;;;;;;4994887;28;20177;-69
2022/05/17 07:01:59;;;;;;;0.90;0.75;;;26.70;94.40;;;;;;4988792;28;20081;-72
2022/05/17 07:04:26;;;;;;;0.47;0.38;;;26.70;93.70;;;;;;4994977;28;20521;-72
2022/05/17 07:06:53;;;;;;;0.90;0.40;;;26.90;94.80;;;;;;4995158;28;20046;-70
2022/05/17 07:09:22;;;;;;;12.13;0.80;;;27.40;93.40;;;;;;4995545;28;20455;-71
2022/05/17 07:14:38;;;;;;;0.17;0.17;;;27.70;93.80;;;;;;4995776;28;20137;-70
2022/05/17 07:17:17;;;;;;;0.10;0.10;;;28.20;92.20;;;;;;4995512;28;20142;-72
2022/05/17 07:19:44;;;;;;;4.03;0.77;;;28.40;91.40;;;;;;4968606;28;20134;-71
2022/05/17 07:22:10;;;;;;;0.35;0.35;;;28.70;92.00;;;;;;4976354;28;20054;-73
2022/05/17 07:24:36;;;;;;;2.50;1.00;;;28.50;90.00;;;;;;4995770;28;20054;-71
2022/05/17 07:27:03;;;;;;;1.17;0.50;;;28.70;90.50;;;;;;4995058;28;20461;-71
2022/05/17 07:29:28;;;;;;;2.30;0.70;;;28.80;91.10;;;;;;4975098;28;20451;-71
2022/05/17 07:31:54;;;;;;;0.88;0.25;;;28.90;89.70;;;;;;4994718;28;20042;-74
2022/05/17 07:34:19;;;;;;;0.20;0.20;;;28.70;88.60;;;;;;4995343;28;20061;-71
2022/05/17 07:36:45;;;;;;;2.83;0.47;;;28.70;89.60;;;;;;4978389;28;20050;-72
2022/05/17 07:39:11;;;;;;;4.85;0.32;;;28.40;88.90;;;;;;4995602;28;20042;-70
2022/05/17 07:41:37;;;;;;;0.10;0.10;;;28.20;90.00;;;;;;4994850;28;20050;-73
2022/05/17 07:44:04;;;;;;;0.32;0.32;;;28.10;88.50;;;;;;4995458;28;20046;-72
2022/05/17 07:46:31;;;;;;;0.00;0.00;;;28.00;88.50;;;;;;4995339;28;20050;-74
2022/05/17 07:48:57;;;;;;;0.20;0.20;;;28.30;90.60;;;;;;4994976;28;20046;-73
2022/05/17 07:51:22;;;;;;;0.13;0.13;;;28.70;89.50;;;;;;4995166;28;20435;-72
2022/05/17 07:53:48;;;;;;;0.28;0.25;;;28.90;88.60;;;;;;4995458;28;20081;-72
2022/05/17 07:56:14;;;;;;;0.63;0.45;;;29.00;87.90;;;;;;4995340;28;20042;-71
2022/05/17 07:58:41;;;;;;;0.00;0.00;;;29.40;82.80;;;;;;4995191;28;20110;-73
2022/05/17 08:01:06;;;;;;;0.20;0.17;;;29.40;83.30;;;;;;4977949;28;20129;-72
2022/05/17 08:03:32;;;;;;;3.42;0.20;;;29.10;85.10;;;;;;4978655;28;20141;-71
2022/05/17 08:05:57;;;;;;;1.15;0.32;;;29.30;83.20;;;;;;4978742;28;20085;-72
2022/05/17 08:08:23;;;;;;;3.10;0.95;;;29.40;83.60;;;;;;4995346;28;20480;-72
2022/05/17 08:10:49;;;;;;;0.30;0.20;;;29.40;82.50;;;;;;4995346;28;20038;-71
2022/05/17 08:13:16;;;;;;;0.10;0.10;;;29.50;83.80;;;;;;4994574;28;20069;-71
2022/05/17 08:15:42;;;;;;;0.22;0.22;;;29.30;83.80;;;;;;4994482;28;20166;-71
2022/05/17 08:18:07;;;;;;;0.80;0.30;;;29.50;83.50;;;;;;4977757;28;20066;-72
2022/05/17 08:20:33;;;;;;;1.17;0.85;;;29.10;84.40;;;;;;4995387;28;20078;-75
2022/05/17 08:22:59;;;;;;;0.08;0.08;;;29.40;84.40;;;;;;4995380;28;20049;-71
2022/05/17 08:28:10;;;;;;;0.10;0.10;;;28.60;80.30;;;;;;4991342;28;20447;-77
2022/05/17 08:30:37;;;;;;;2.20;0.55;;;28.90;82.50;;;;;;4995202;28;20414;-76
2022/05/17 08:33:16;;;;;;;0.10;0.10;;;29.40;82.00;;;;;;4965477;28;20060;-75
2022/05/17 08:35:54;;;;;;;0.93;0.90;;;29.10;78.60;;;;;;4976079;28;20050;-77
2022/05/17 08:38:40;;;;;;;0.10;0.10;;;28.80;78.80;;;;;;4975887;28;20097;-77
2022/05/17 08:41:41;;;;;;;0.47;0.43;;;28.20;79.50;;;;;;4975773;28;20053;-77
2022/05/17 08:44:13;;;;;;;0.10;0.10;;;28.30;81.40;;;;;;4975922;28;20043;-76
2022/05/17 08:47:11;;;;;;;3.67;0.50;;;28.30;82.20;;;;;;4975917;28;20083;-75
2022/05/17 08:50:00;;;;;;;0.10;0.00;;;28.50;80.50;;;;;;4975699;28;20149;-74
2022/05/17 08:52:27;;;;;;;0.00;0.00;;;28.30;79.00;;;;;;4976005;28;20049;-74
2022/05/17 08:55:01;;;;;;;2.65;0.52;;;28.10;80.20;;;;;;4975785;28;20061;-75
2022/05/17 08:57:33;;;;;;;0.40;0.40;;;28.00;79.70;;;;;;4975543;28;20054;-74
2022/05/17 09:00:13;;;;;;;0.25;0.17;;;27.90;79.60;;;;;;4991953;28;20450;-74
2022/05/17 09:02:47;;;;;;;1.30;0.85;;;27.50;79.30;;;;;;4995092;28;20407;-76
2022/05/17 09:05:25;;;;;;;0.28;0.28;;;27.30;77.40;;;;;;4977814;28;20137;-74
2022/05/17 09:08:22;;;;;;;0.20;0.15;;;27.20;80.50;;;;;;4994964;28;20046;-75
2022/05/17 09:10:53;;;;;;;0.22;0.22;;;26.60;80.30;;;;;;4995046;28;20407;-75
2022/05/17 09:13:28;;;;;;;0.38;0.38;;;25.60;80.70;;;;;;4972536;28;20105;-75
2022/05/17 09:15:57;;;;;;;0.30;0.30;;;25.60;85.50;;;;;;4975484;28;20042;-76
2022/05/17 09:18:24;;;;;;;0.25;0.25;;;25.60;85.00;;;;;;4975720;28;20061;-76
2022/05/17 09:20:50;;;;;;;0.63;0.40;;;25.30;85.50;;;;;;4994763;28;20051;-75
2022/05/17 09:23:16;;;;;;;0.10;0.10;;;25.60;87.70;;;;;;4995114;28;20042;-74
2022/05/17 09:25:51;;;;;;;0.13;0.13;;;25.50;85.90;;;;;;4994660;28;20038;-75
2022/05/17 09:28:22;;;;;;;1.27;0.30;;;25.50;85.90;;;;;;4994225;28;20050;-74
2022/05/17 09:31:05;;;;;;;0.75;0.40;;;25.50;85.10;;;;;;4997057;28;20072;-75
2022/05/17 09:33:31;;;;;;;1.33;1.05;;;25.50;86.60;;;;;;4998528;28;20325;-75
2022/05/17 09:36:00;;;;;;;0.30;0.30;;;25.40;87.90;;;;;;4998194;28;20051;-75
2022/05/17 09:38:33;;;;;;;1.08;0.43;;;25.50;88.10;;;;;;4998149;28;20057;-75
2022/05/17 09:41:00;;;;;;;0.68;0.40;;;25.20;83.90;;;;;;4998414;28;20081;-76
2022/05/17 09:44:00;;;;;;;0.45;0.35;;;25.40;86.20;;;;;;4996696;28;20038;-75
2022/05/17 09:46:50;;;;;;;0.20;0.20;;;25.70;84.40;;;;;;4987163;28;20085;-74
2022/05/17 09:52:32;;;;;;;0.10;0.10;;;25.90;84.20;;;;;;4997856;28;20050;-74
2022/05/17 09:55:09;;;;;;;0.20;0.20;;;25.80;85.10;;;;;;4997765;28;20439;-74
2022/05/17 09:57:34;;;;;;;0.10;0.10;;;25.30;83.50;;;;;;4997896;28;20046;-75
2022/05/17 10:00:16;;;;;;;0.10;0.10;;;25.20;85.60;;;;;;4997229;28;20065;-74
2022/05/17 10:03:02;;;;;;;0.15;0.15;;;25.30;86.40;;;;;;4978359;28;20126;-75
2022/05/17 10:05:45;;;;;;;0.10;0.10;;;25.40;86.90;;;;;;4997703;28;20469;-76
2022/05/17 10:08:14;;;;;;;0.10;0.10;;;25.50;83.10;;;;;;4997974;28;20069;-75
2022/05/17 10:11:00;;;;;;;3.40;0.22;;;25.20;83.40;;;;;;4997676;28;20065;-75
2022/05/17 10:13:34;;;;;;;0.13;0.13;;;25.30;83.80;;;;;;4979751;28;20367;-76
2022/05/17 10:16:11;;;;;;;0.15;0.15;;;25.10;84.60;;;;;;4997535;28;20042;-74
2022/05/17 10:18:46;;;;;;;1.52;0.88;;;25.00;83.20;;;;;;4997446;28;20047;-74
2022/05/17 10:21:52;;;;;;;0.30;0.30;;;25.00;85.00;;;;;;4993923;28;20050;-75
2022/05/17 10:24:25;;;;;;;4.13;0.73;;;25.20;81.80;;;;;;4976536;28;20123;-74
2022/05/17 10:27:08;;;;;;;0.63;0.63;;;25.10;82.50;;;;;;4979953;28;20085;-75
2022/05/17 10:29:46;;;;;;;0.10;0.10;;;25.30;81.40;;;;;;4997208;28;20097;-74
2022/05/17 10:32:30;;;;;;;0.10;0.10;;;25.50;81.30;;;;;;4997211;28;20046;-76
2022/05/17 10:35:01;;;;;;;0.75;0.43;;;25.70;80.80;;;;;;4989075;28;20046;-75
2022/05/17 10:37:33;;;;;;;0.10;0.10;;;25.90;76.30;;;;;;4980943;28;20043;-74
2022/05/17 10:40:11;;;;;;;0.20;0.20;;;25.70;75.20;;;;;;4977729;28;20039;-74
2022/05/17 10:42:37;;;;;;;0.10;0.10;;;25.60;78.50;;;;;;4996923;28;20129;-78
2022/05/17 10:45:05;;;;;;;0.10;0.10;;;25.70;78.00;;;;;;4997070;28;20061;-74
2022/05/17 10:48:07;;;;;;;5.50;0.28;;;25.50;79.20;;;;;;4997170;28;20066;-74
2022/05/17 10:50:43;;;;;;;0.25;0.25;;;25.30;78.30;;;;;;4996602;28;20454;-76
2022/05/17 10:53:33;;;;;;;0.35;0.35;;;25.30;79.90;;;;;;4980044;28;20371;-74
2022/05/17 10:56:13;;;;;;;0.10;0.10;;;25.40;77.50;;;;;;4996912;28;20050;-74
2022/05/17 10:59:01;;;;;;;0.10;0.10;;;25.50;80.80;;;;;;4996939;28;20046;-75
2022/05/17 11:01:35;;;;;;;1.05;0.15;;;25.70;81.10;;;;;;4996700;28;20050;-74
2022/05/17 11:04:19;;;;;;;0.10;0.10;;;25.90;76.80;;;;;;4996448;28;20035;-74
2022/05/17 11:07:03;;;;;;;0.10;0.10;;;26.00;76.30;;;;;;4996530;28;20038;-74
2022/05/17 11:09:52;;;;;;;0.28;0.28;;;25.90;74.30;;;;;;4996450;28;20042;-75
2022/05/17 11:12:23;;;;;;;0.20;0.20;;;25.60;76.10;;;;;;4996684;28;20131;-75
2022/05/17 11:14:59;;;;;;;0.20;0.20;;;25.80;76.60;;;;;;4979311;28;20104;-75
2022/05/17 11:17:50;;;;;;;0.10;0.10;;;25.80;77.80;;;;;;4996582;28;20046;-75
2022/05/17 11:20:28;;;;;;;0.10;0.10;;;25.90;74.50;;;;;;4979782;28;20058;-74
2022/05/17 11:23:26;;;;;;;0.38;0.38;;;26.10;75.70;;;;;;4976889;28;20419;-73
2022/05/17 11:26:06;;;;;;;0.10;0.10;;;26.30;75.00;;;;;;4996108;28;20050;-75
2022/05/17 11:29:05;;;;;;;0.13;0.13;;;26.40;71.50;;;;;;4996207;28;20061;-74
2022/05/17 11:31:57;;;;;;;0.70;0.70;;;26.40;70.70;;;;;;4979688;28;20046;-75
2022/05/17 11:34:25;;;;;;;0.10;0.10;;;26.40;72.10;;;;;;4984170;28;20046;-75
2022/05/17 11:36:53;;;;;;;0.15;0.15;;;26.30;70.50;;;;;;4996320;28;20096;-74
2022/05/17 11:39:48;;;;;;;0.10;0.10;;;26.10;70.00;;;;;;4996285;28;20038;-73
2022/05/17 11:42:30;;;;;;;0.10;0.10;;;25.90;72.40;;;;;;4994001;28;20073;-76
2022/05/17 11:45:36;;;;;;;0.20;0.20;;;26.00;72.80;;;;;;4996256;28;20065;-75
2022/05/17 11:48:01;;;;;;;0.20;0.20;;;26.10;73.00;;;;;;4968041;28;20054;-74
2022/05/17 11:50:30;;;;;;;0.20;0.20;;;26.30;71.80;;;;;;4995821;28;20053;-75
2022/05/17 11:53:24;;;;;;;0.43;0.43;;;26.50;70.00;;;;;;4995330;28;20105;-74
2022/05/17 11:56:21;;;;;;;0.80;0.30;;;26.60;70.30;;;;;;4995592;28;20053;-75
2022/05/17 11:59:12;;;;;;;0.90;0.55;;;26.90;73.40;;;;;;4978842;28;20141;-75
2022/05/17 12:01:37;;;;;;;0.20;0.20;;;27.30;70.20;;;;;;4995622;28;20069;-75
2022/05/17 12:04:21;;;;;;;0.10;0.10;;;27.70;71.70;;;;;;4965727;28;20124;-74
2022/05/17 12:06:56;;;;;;;0.57;0.35;;;28.00;70.10;;;;;;4995703;28;20054;-73
2022/05/17 12:09:29;;;;;;;0.10;0.10;;;28.10;69.10;;;;;;4995361;28;20046;-76
2022/05/17 12:12:32;;;;;;;0.63;0.52;;;28.30;69.60;;;;;;4978259;28;20050;-75
2022/05/17 12:15:09;;;;;;;;;;;28.50;69.10;;;;;;4995791;28;20082;-74
2022/05/17 12:18:04;;;;;;;0.10;0.10;;;28.70;68.40;;;;;;4995206;28;19921;-74
2022/05/17 12:20:48;;;;;;;0.10;0.10;;;28.10;66.70;;;;;;4976248;28;20097;-74
2022/05/17 12:23:37;;;;;;;0.20;0.20;;;28.20;68.00;;;;;;4976082;28;20054;-74
2022/05/17 12:26:08;;;;;;;0.25;0.22;;;28.40;64.50;;;;;;4975843;28;20475;-76
2022/05/17 12:28:54;;;;;;;0.10;0.10;;;28.70;66.00;;;;;;4975889;28;20038;-74
2022/05/17 12:31:25;;;;;;;0.30;0.30;;;28.90;62.40;;;;;;4975681;28;20098;-74
2022/05/17 12:33:52;;;;;;;2.70;0.47;;;28.50;59.60;;;;;;4987331;28;20046;-75
2022/05/17 12:36:22;;;;;;;0.00;0.00;;;28.00;60.30;;;;;;4994385;28;20492;-76
2022/05/17 12:44:55;;;;;;;0.00;0.00;;;29.00;64.00;;;;;;4995054;28;20129;-76
2022/05/17 12:47:26;;;;;;;0.40;0.22;;;29.10;61.10;;;;;;4994637;28;20054;-76
2022/05/17 12:49:54;;;;;;;0.17;0.17;;;29.20;61.30;;;;;;4995096;28;20093;-76
2022/05/17 12:52:35;;;;;;;0.25;0.10;;;29.30;64.10;;;;;;4995104;28;20043;-75
2022/05/17 12:55:17;;;;;;;0.40;0.40;;;29.10;61.50;;;;;;4995358;28;20058;-75
2022/05/17 12:57:42;;;;;;;0.00;0.00;;;29.30;61.20;;;;;;4994763;28;20444;-74
2022/05/17 13:00:29;;;;;;;0.52;0.28;;;28.50;59.10;;;;;;4995456;28;20105;-75
2022/05/17 13:03:01;;;;;;;0.93;0.85;;;28.60;61.50;;;;;;4994949;28;20054;-74
2022/05/17 13:05:39;;;;;;;0.28;0.25;;;28.50;61.20;;;;;;4998792;28;20553;-73
2022/05/17 13:08:14;;;;;;;1.05;0.98;;;28.60;62.20;;;;;;4998631;28;20045;-76
2022/05/17 13:10:43;;;;;;;0.00;0.00;;;28.80;63.60;;;;;;4981690;28;20047;-74
2022/05/17 13:13:27;;;;;;;4.00;0.10;;;28.80;61.90;;;;;;4981504;28;20058;-74
2022/05/17 13:15:57;;;;;;;0.40;0.40;;;28.70;60.20;;;;;;4998702;28;20046;-74
2022/05/17 13:18:27;;;;;;;0.22;0.17;;;28.70;62.20;;;;;;4994758;28;20070;-75
2022/05/17 13:20:52;;;;;;;0.10;0.10;;;28.50;61.40;;;;;;4998983;28;20065;-75
2022/05/17 13:23:26;;;;;;;0.45;0.38;;;28.50;62.10;;;;;;4998581;28;20046;-74